Accueil
METAR-TAF:

METAR-TAF

Aéroports :

Circuit de Zeltweg

Zeltweg, Autriche

latitude: 47-12N, longitude: 014-45E, altitude: 677 m

Observation

Le bulletin a été fait il y a 15 minutes, à 14:20 UTC
Vent 4 kt de sud-ouest, variant entre sud et ouest
Température 21°C
Humidité 21%
Pression 1021 hPa

METAR: LOXZ 091420Z 22004KT 170V270 40KM FEW060CU 21/M02 Q1021 NOSIG

Heure: 16:35 (14:35 UTC)

Prévision

Le bulletin a été fait il y a 3 heures et 20 minutes, à 11:15 UTC
Prévision valable du 09 à 12 UTC au 09 à 21 UTC
Vent 3 kt de direction variable
Visibilité 10 km ou plus
Quelques nuages à une hauteur de 6000 ft
Temporairement
du 09 à 13 UTC au 09 à 18 UTC
Vent 6 kt de est/nord-est
Quelques nuages à une hauteur de 6000 ft
Nuages épars à une hauteur de 9000 ft

TAF: LOXZ 091115Z 0912/0921 VRB03KT 9999 FEW060 TEMPO 0913/0918 07006KT FEW060 SCT090

Observations et prévisions météorologiques de plus de 4000 aéroports (messages METAR et TAF).

Les stations disponibles sont représentées par des disques jaunes et rouges sur la carte.

Passer la souris dessus pour voir le nom de la station.

Cliquer dessus pour voir les observations et prévisions météorologiques.

Pour changer de carte: cliquez sur les boutons verts avec une croix noire pour zoomer, sur le bouton vert avec un tiret pour effectuer un zoom arrière, ou sur les flèches vertes pour les cartes adjacentes.


METAR-TAF: